createdAt,value
2022-09-26T00:00:09.727Z,16.20
2022-09-26T00:02:39.865Z,16.30
2022-09-26T00:05:11.265Z,16.50
2022-09-26T00:07:39.546Z,16.50
2022-09-26T00:10:07.191Z,16.60
2022-09-26T00:12:34.097Z,16.70
2022-09-26T00:15:01.052Z,16.70
2022-09-26T00:17:27.890Z,17.00
2022-09-26T00:19:54.772Z,17.00
2022-09-26T00:22:21.775Z,17.00
2022-09-26T00:24:50.024Z,16.90
2022-09-26T00:27:16.884Z,16.80
2022-09-26T00:29:43.843Z,16.80
2022-09-26T00:32:11.310Z,16.80
2022-09-26T00:34:38.242Z,16.70
2022-09-26T00:37:05.174Z,16.60
2022-09-26T00:39:32.058Z,16.40
2022-09-26T00:42:01.940Z,16.40
2022-09-26T00:44:45.103Z,16.50
2022-09-26T00:47:18.838Z,16.60
2022-09-26T00:49:48.283Z,16.70
2022-09-26T00:52:17.619Z,16.50
2022-09-26T00:54:46.602Z,16.40
2022-09-26T00:57:17.129Z,16.30
2022-09-26T00:59:46.626Z,16.40
2022-09-26T01:02:14.333Z,16.50
2022-09-26T01:04:42.403Z,16.30
2022-09-26T01:07:12.830Z,16.40
2022-09-26T01:09:39.909Z,16.40
2022-09-26T01:12:08.825Z,16.60
2022-09-26T01:14:38.037Z,16.50
2022-09-26T01:17:05.203Z,16.40
2022-09-26T01:19:35.299Z,16.30
2022-09-26T01:22:20.236Z,16.30
2022-09-26T01:24:55.875Z,16.10
2022-09-26T01:27:35.701Z,16.30
2022-09-26T01:30:09.468Z,15.90
2022-09-26T01:32:54.594Z,16.00
2022-09-26T01:35:27.924Z,15.90
2022-09-26T01:38:00.451Z,16.00
2022-09-26T01:40:31.726Z,15.90
2022-09-26T01:43:02.732Z,16.00
2022-09-26T01:45:34.054Z,16.10
2022-09-26T01:48:04.136Z,16.10
2022-09-26T01:50:37.071Z,16.00
2022-09-26T01:53:05.745Z,15.90
2022-09-26T01:55:36.319Z,15.90
2022-09-26T01:58:05.589Z,15.90
2022-09-26T02:00:35.877Z,15.80
2022-09-26T02:03:04.861Z,15.60
2022-09-26T02:05:33.334Z,15.80
2022-09-26T02:08:03.433Z,15.80
2022-09-26T02:10:32.791Z,15.90
2022-09-26T02:13:03.032Z,15.70
2022-09-26T02:15:30.602Z,15.60
2022-09-26T02:18:02.305Z,15.70
2022-09-26T02:20:30.975Z,15.50
2022-09-26T02:22:59.489Z,15.50
2022-09-26T02:25:28.292Z,15.40
2022-09-26T02:27:55.413Z,15.40
2022-09-26T02:30:22.831Z,15.30
2022-09-26T02:32:49.773Z,15.40
2022-09-26T02:35:37.453Z,15.60
2022-09-26T02:38:05.569Z,15.50
2022-09-26T02:40:48.018Z,15.50
2022-09-26T02:43:26.409Z,15.30
2022-09-26T02:46:02.012Z,15.30
2022-09-26T02:48:34.300Z,15.60
2022-09-26T02:51:08.118Z,15.70
2022-09-26T02:53:51.460Z,15.40
2022-09-26T02:56:25.523Z,15.40
2022-09-26T02:59:01.468Z,15.40
2022-09-26T03:01:41.170Z,15.40
2022-09-26T03:04:15.419Z,15.30
2022-09-26T03:06:46.742Z,15.00
2022-09-26T03:09:16.355Z,14.90
2022-09-26T03:11:43.415Z,14.60
2022-09-26T03:14:12.271Z,14.30
2022-09-26T03:16:41.651Z,14.30
2022-09-26T03:19:12.159Z,14.40
2022-09-26T03:21:39.365Z,14.40
2022-09-26T03:24:07.707Z,14.40
2022-09-26T03:26:35.021Z,14.60
2022-09-26T03:29:03.597Z,14.60
2022-09-26T03:31:33.061Z,14.80
2022-09-26T03:34:02.444Z,14.70
2022-09-26T03:36:30.294Z,14.70
2022-09-26T03:38:57.477Z,14.90
2022-09-26T03:41:49.238Z,14.80
2022-09-26T03:44:18.725Z,14.70
2022-09-26T03:47:04.402Z,14.60
2022-09-26T03:49:35.005Z,14.50
2022-09-26T03:52:03.380Z,14.30
2022-09-26T03:54:30.312Z,14.40
2022-09-26T03:56:59.004Z,14.20
2022-09-26T03:59:27.052Z,14.20
2022-09-26T04:01:54.536Z,14.30
2022-09-26T04:04:21.972Z,14.20
2022-09-26T04:06:51.209Z,14.30
2022-09-26T04:09:18.954Z,14.30
2022-09-26T04:11:50.300Z,14.20
2022-09-26T04:14:19.838Z,14.20
2022-09-26T04:16:50.961Z,14.20
2022-09-26T04:19:31.848Z,14.20
2022-09-26T04:21:59.530Z,14.20
2022-09-26T04:24:27.833Z,14.20
2022-09-26T04:26:55.073Z,13.90
2022-09-26T04:29:23.688Z,14.00
2022-09-26T04:31:59.639Z,14.00
2022-09-26T04:34:34.256Z,13.90
2022-09-26T04:37:01.512Z,13.90
2022-09-26T04:39:28.454Z,14.10
2022-09-26T04:41:56.472Z,14.30
2022-09-26T04:44:25.012Z,14.40
2022-09-26T04:46:52.057Z,14.60
2022-09-26T04:49:22.156Z,14.50
2022-09-26T04:51:49.398Z,14.70
2022-09-26T04:54:16.709Z,14.70
2022-09-26T04:56:44.223Z,14.70
2022-09-26T04:59:11.299Z,14.60
2022-09-26T05:01:54.849Z,14.50
2022-09-26T05:04:37.373Z,14.70
2022-09-26T05:07:04.584Z,14.70
2022-09-26T05:09:36.111Z,14.50
2022-09-26T05:12:10.716Z,14.40
2022-09-26T05:14:39.623Z,14.40
2022-09-26T05:17:08.437Z,14.40
2022-09-26T05:19:36.150Z,14.40
2022-09-26T05:22:19.177Z,14.30
2022-09-26T05:25:05.306Z,14.30
2022-09-26T05:27:32.266Z,14.40
2022-09-26T05:30:00.063Z,14.50
2022-09-26T05:32:29.247Z,14.60
2022-09-26T05:34:57.630Z,14.80
2022-09-26T05:37:26.705Z,14.90
2022-09-26T05:40:12.568Z,14.70
2022-09-26T05:42:44.801Z,14.50
2022-09-26T05:45:13.694Z,14.60
2022-09-26T05:47:43.466Z,14.50
2022-09-26T05:50:10.901Z,14.60
2022-09-26T05:52:39.824Z,14.40
2022-09-26T05:55:09.275Z,14.30
2022-09-26T05:57:58.346Z,14.30
2022-09-26T06:00:30.595Z,14.30
2022-09-26T06:03:01.046Z,14.30
2022-09-26T06:05:43.308Z,14.00
2022-09-26T06:08:18.066Z,14.00
2022-09-26T06:10:49.684Z,14.10
2022-09-26T06:13:16.564Z,14.10
2022-09-26T06:15:49.945Z,14.30
2022-09-26T06:18:19.513Z,14.20
2022-09-26T06:20:47.051Z,14.10
2022-09-26T06:23:14.102Z,14.20
2022-09-26T06:25:46.871Z,14.20
2022-09-26T06:28:13.694Z,14.30
2022-09-26T06:30:40.723Z,14.30
2022-09-26T06:35:45.120Z,14.70
2022-09-26T06:38:18.281Z,14.30
2022-09-26T06:40:45.806Z,14.30
2022-09-26T06:43:13.254Z,14.20
2022-09-26T06:45:59.258Z,14.30
2022-09-26T06:48:33.929Z,14.30
2022-09-26T06:51:22.818Z,14.30
2022-09-26T06:53:49.825Z,14.40
2022-09-26T06:56:20.805Z,14.30
2022-09-26T06:58:49.967Z,14.20
2022-09-26T07:01:20.503Z,14.50
2022-09-26T07:03:54.672Z,14.40
2022-09-26T07:06:35.528Z,14.40
2022-09-26T07:09:07.467Z,14.30
2022-09-26T07:12:13.176Z,14.00
2022-09-26T07:14:33.639Z,14.40
2022-09-26T07:17:09.424Z,14.50
2022-09-26T07:19:46.345Z,14.60
2022-09-26T07:22:37.724Z,14.90
2022-09-26T07:25:05.486Z,15.00
2022-09-26T07:27:32.383Z,14.70
2022-09-26T07:30:00.606Z,14.90
2022-09-26T07:32:33.305Z,15.20
2022-09-26T07:35:24.949Z,15.20
2022-09-26T07:37:53.549Z,15.00
2022-09-26T07:40:21.596Z,14.80
2022-09-26T07:43:04.228Z,15.10
2022-09-26T07:45:55.262Z,15.10
2022-09-26T07:48:45.468Z,15.20
2022-09-26T07:51:41.631Z,15.10
2022-09-26T07:54:15.288Z,15.30
2022-09-26T07:57:15.015Z,15.30
2022-09-26T08:00:04.227Z,15.60
2022-09-26T08:02:53.062Z,15.80
2022-09-26T08:05:20.845Z,15.60
2022-09-26T08:07:49.431Z,15.30
2022-09-26T08:10:38.097Z,15.20
2022-09-26T08:13:26.160Z,15.00
2022-09-26T08:16:06.222Z,15.00
2022-09-26T08:18:40.779Z,15.00
2022-09-26T08:21:08.204Z,15.20
2022-09-26T08:23:35.469Z,15.50
2022-09-26T08:26:24.148Z,15.60
2022-09-26T08:28:58.997Z,15.50
2022-09-26T08:31:26.769Z,15.70
2022-09-26T08:33:54.352Z,15.60
2022-09-26T08:36:23.511Z,15.40
2022-09-26T08:39:13.283Z,15.40
2022-09-26T08:42:08.193Z,15.70
2022-09-26T08:45:23.893Z,15.90
2022-09-26T08:48:27.603Z,16.00
2022-09-26T08:51:13.169Z,15.70
2022-09-26T08:53:42.332Z,15.70
2022-09-26T08:56:14.663Z,15.90
2022-09-26T08:58:45.163Z,15.90
2022-09-26T09:01:13.613Z,15.80
2022-09-26T09:04:05.503Z,15.50
2022-09-26T09:06:35.446Z,15.60
2022-09-26T09:09:03.091Z,15.60
2022-09-26T09:11:56.234Z,15.40
2022-09-26T09:14:38.091Z,15.50
2022-09-26T09:17:41.779Z,15.50
2022-09-26T09:20:34.207Z,15.60
2022-09-26T09:23:26.587Z,15.50
2022-09-26T09:27:52.507Z,15.50
2022-09-26T09:29:10.499Z,15.30
2022-09-26T09:31:41.590Z,15.40
2022-09-26T09:34:29.192Z,15.10
2022-09-26T09:37:20.941Z,15.20
2022-09-26T09:40:26.968Z,15.10
2022-09-26T09:43:03.674Z,15.00
2022-09-26T09:45:38.113Z,15.10
2022-09-26T09:48:09.115Z,15.40
2022-09-26T09:50:39.814Z,15.50
2022-09-26T09:53:13.490Z,15.60
2022-09-26T09:55:56.232Z,15.70
2022-09-26T09:58:45.956Z,15.60
2022-09-26T10:01:25.593Z,15.60
2022-09-26T10:03:59.216Z,15.50
2022-09-26T10:06:46.224Z,15.40
2022-09-26T10:09:39.282Z,15.40
2022-09-26T10:12:30.557Z,15.50
2022-09-26T10:15:27.671Z,15.40
2022-09-26T10:18:30.562Z,15.40
2022-09-26T10:21:19.670Z,15.30
2022-09-26T10:23:49.330Z,15.40
2022-09-26T10:26:35.754Z,15.50
2022-09-26T10:29:05.408Z,15.30
2022-09-26T10:31:39.946Z,15.10
2022-09-26T10:34:23.284Z,15.20
2022-09-26T10:36:50.491Z,15.50
2022-09-26T10:39:38.589Z,15.50
2022-09-26T10:42:14.056Z,15.40
2022-09-26T10:44:43.234Z,15.20
2022-09-26T10:47:37.597Z,15.40
2022-09-26T10:50:47.962Z,15.40
2022-09-26T10:53:37.563Z,15.60
2022-09-26T10:56:07.961Z,15.40
2022-09-26T10:58:39.000Z,15.50
2022-09-26T11:01:07.907Z,15.40
2022-09-26T11:03:41.901Z,15.20
2022-09-26T11:06:48.068Z,15.20
2022-09-26T11:09:28.026Z,14.90
2022-09-26T11:12:26.714Z,14.90
2022-09-26T11:14:59.344Z,15.00
2022-09-26T11:17:46.867Z,15.00
2022-09-26T11:20:17.923Z,14.90
2022-09-26T11:22:48.990Z,15.00
2022-09-26T11:25:18.865Z,15.10
2022-09-26T11:27:50.739Z,15.30
2022-09-26T11:30:26.353Z,15.30
2022-09-26T11:33:07.085Z,15.20
2022-09-26T11:36:11.030Z,14.90
2022-09-26T11:38:43.282Z,14.90
2022-09-26T11:41:19.039Z,14.90
2022-09-26T11:43:51.289Z,15.10
2022-09-26T11:46:47.700Z,15.00
2022-09-26T11:49:42.456Z,15.10
2022-09-26T11:52:34.317Z,14.90
2022-09-26T11:55:08.164Z,15.00
2022-09-26T11:57:43.199Z,15.00
2022-09-26T12:00:16.181Z,15.00
2022-09-26T12:03:07.317Z,14.80
2022-09-26T12:05:39.899Z,14.90
2022-09-26T12:08:17.397Z,15.20
2022-09-26T12:10:52.492Z,15.30
2022-09-26T12:13:24.966Z,15.20
2022-09-26T12:15:55.186Z,15.00
2022-09-26T12:18:25.830Z,15.10
2022-09-26T12:20:58.082Z,15.20
2022-09-26T12:23:28.926Z,15.00
2022-09-26T12:26:02.440Z,15.00
2022-09-26T12:28:38.717Z,15.00
2022-09-26T12:31:14.909Z,15.20
2022-09-26T12:33:54.983Z,15.30
2022-09-26T12:36:28.840Z,15.40
2022-09-26T12:39:04.431Z,15.50
2022-09-26T12:41:43.342Z,15.50
2022-09-26T12:44:22.671Z,15.60
2022-09-26T12:47:00.698Z,15.40
2022-09-26T12:49:35.163Z,15.60
2022-09-26T12:52:06.748Z,15.60
2022-09-26T12:54:38.864Z,15.70
2022-09-26T12:57:10.076Z,15.80
2022-09-26T12:59:45.588Z,15.90
2022-09-26T13:02:27.976Z,16.10
2022-09-26T13:05:04.334Z,16.20
2022-09-26T13:07:40.295Z,16.10
2022-09-26T13:10:15.373Z,16.10
2022-09-26T13:12:53.172Z,16.00
2022-09-26T13:15:25.021Z,16.00
2022-09-26T13:17:54.670Z,15.70
2022-09-26T13:20:29.797Z,15.60
2022-09-26T13:23:02.799Z,15.70
2022-09-26T13:25:37.206Z,15.70
2022-09-26T13:28:09.940Z,15.60
2022-09-26T13:30:41.041Z,15.30
2022-09-26T13:33:13.631Z,15.30
2022-09-26T13:35:43.631Z,15.10
2022-09-26T13:38:18.272Z,15.00
2022-09-26T13:40:50.947Z,15.10
2022-09-26T13:43:24.756Z,15.20
2022-09-26T13:46:00.687Z,15.30
2022-09-26T13:48:33.741Z,15.50
2022-09-26T13:51:06.474Z,15.90
2022-09-26T13:53:36.371Z,16.00
2022-09-26T13:56:22.797Z,16.20
2022-09-26T13:59:02.207Z,16.20
2022-09-26T14:01:29.600Z,16.00
2022-09-26T14:04:11.425Z,15.80
2022-09-26T14:06:59.651Z,15.90
2022-09-26T14:09:39.244Z,16.00
2022-09-26T14:12:32.071Z,16.10
2022-09-26T14:15:29.172Z,16.20
2022-09-26T14:18:14.043Z,16.20
2022-09-26T14:21:00.309Z,16.20
2022-09-26T14:23:35.823Z,16.30
2022-09-26T14:26:06.709Z,16.30
2022-09-26T14:28:34.898Z,16.30
2022-09-26T14:31:08.891Z,16.30
2022-09-26T14:33:36.060Z,16.50
2022-09-26T14:36:24.609Z,16.70
2022-09-26T14:38:53.694Z,16.80
2022-09-26T14:41:21.948Z,16.80
2022-09-26T14:43:51.052Z,16.80
2022-09-26T14:46:23.176Z,16.70
2022-09-26T14:48:57.031Z,16.60
2022-09-26T14:51:27.719Z,16.60
2022-09-26T14:53:58.656Z,16.30
2022-09-26T14:56:43.143Z,16.40
2022-09-26T14:59:43.310Z,16.50
2022-09-26T15:02:16.964Z,16.60
2022-09-26T15:04:46.682Z,16.80
2022-09-26T15:07:17.781Z,17.00
2022-09-26T15:09:53.503Z,17.10
2022-09-26T15:12:26.011Z,17.10
2022-09-26T15:14:58.041Z,17.10
2022-09-26T15:17:31.586Z,16.90
2022-09-26T15:19:59.727Z,16.90
2022-09-26T15:22:28.980Z,16.80
2022-09-26T15:25:07.021Z,17.10
2022-09-26T15:27:34.114Z,17.10
2022-09-26T15:30:04.443Z,17.40
2022-09-26T15:32:32.374Z,17.30
2022-09-26T15:35:01.449Z,17.20
2022-09-26T15:37:32.669Z,17.10
2022-09-26T15:40:11.651Z,16.90
2022-09-26T15:42:57.483Z,17.00
2022-09-26T15:45:27.512Z,16.90
2022-09-26T15:47:55.530Z,17.00
2022-09-26T15:50:25.077Z,16.80
2022-09-26T15:52:55.311Z,16.60
2022-09-26T15:55:28.210Z,16.60
2022-09-26T15:57:57.198Z,16.50
2022-09-26T16:00:24.193Z,16.60
2022-09-26T16:02:51.351Z,16.70
2022-09-26T16:05:18.873Z,16.50
2022-09-26T16:07:47.861Z,16.60
2022-09-26T16:10:23.220Z,16.70
2022-09-26T16:12:52.337Z,16.50
2022-09-26T16:15:21.729Z,16.50
2022-09-26T16:17:52.825Z,16.30
2022-09-26T16:20:25.429Z,16.50
2022-09-26T16:22:59.162Z,16.70
2022-09-26T16:25:32.196Z,16.70
2022-09-26T16:28:03.454Z,16.80
2022-09-26T16:30:41.589Z,16.70
2022-09-26T16:33:30.184Z,16.70
2022-09-26T16:36:02.649Z,16.60
2022-09-26T16:38:31.201Z,16.90
2022-09-26T16:41:03.644Z,17.20
2022-09-26T16:43:33.016Z,17.10
2022-09-26T16:46:01.740Z,17.20
2022-09-26T16:48:36.499Z,17.40
2022-09-26T16:51:15.471Z,17.30
2022-09-26T16:53:44.726Z,17.30
2022-09-26T16:56:14.789Z,17.10
2022-09-26T16:58:48.946Z,17.10
2022-09-26T17:01:36.178Z,16.90
2022-09-26T17:04:03.881Z,16.90
2022-09-26T17:06:31.303Z,16.70
2022-09-26T17:09:01.432Z,16.70
2022-09-26T17:11:28.928Z,16.70
2022-09-26T17:13:58.039Z,16.30
2022-09-26T17:16:25.263Z,16.50
2022-09-26T17:18:52.192Z,16.30
2022-09-26T17:21:19.777Z,16.20
2022-09-26T17:23:48.818Z,16.20
2022-09-26T17:26:18.087Z,16.10
2022-09-26T17:28:45.194Z,15.80
2022-09-26T17:31:19.653Z,15.80
2022-09-26T17:33:49.224Z,15.90
2022-09-26T17:36:19.678Z,16.10
2022-09-26T17:38:46.699Z,16.10
2022-09-26T17:41:13.580Z,16.10
2022-09-26T17:43:40.953Z,16.00
2022-09-26T17:46:15.149Z,16.20
2022-09-26T17:48:44.702Z,16.00
2022-09-26T17:51:14.068Z,15.80
2022-09-26T17:53:46.130Z,16.00
2022-09-26T17:56:15.908Z,16.10
2022-09-26T17:58:44.487Z,16.10
2022-09-26T18:01:18.874Z,16.10
2022-09-26T18:03:47.958Z,16.20
2022-09-26T18:06:14.855Z,16.00
2022-09-26T18:08:43.275Z,16.10
2022-09-26T18:11:15.492Z,15.90
2022-09-26T18:13:46.293Z,16.10
2022-09-26T18:16:14.101Z,16.20
2022-09-26T18:18:41.088Z,16.10
2022-09-26T18:21:12.744Z,16.00
2022-09-26T18:23:41.120Z,16.00
2022-09-26T18:26:09.886Z,16.20
2022-09-26T18:28:38.878Z,16.10
2022-09-26T18:31:08.850Z,15.90
2022-09-26T18:33:38.048Z,16.00
2022-09-26T18:36:05.313Z,16.00
2022-09-26T18:38:35.383Z,16.00
2022-09-26T18:41:02.622Z,15.90
2022-09-26T18:43:32.117Z,15.90
2022-09-26T18:45:59.403Z,16.00
2022-09-26T18:48:27.377Z,15.90
2022-09-26T18:50:54.611Z,16.00
2022-09-26T18:53:22.512Z,16.20
2022-09-26T18:56:09.776Z,16.20
2022-09-26T18:58:36.960Z,16.20
2022-09-26T19:01:05.862Z,16.40
2022-09-26T19:03:34.362Z,16.20
2022-09-26T19:06:03.526Z,16.20
2022-09-26T19:08:34.157Z,16.10
2022-09-26T19:11:04.030Z,16.10
2022-09-26T19:13:33.806Z,16.20
2022-09-26T19:16:01.119Z,16.30
2022-09-26T19:18:28.261Z,16.10
2022-09-26T19:20:55.185Z,16.20
2022-09-26T19:23:22.398Z,16.10
2022-09-26T19:25:49.341Z,16.10
2022-09-26T19:28:21.180Z,16.00
2022-09-26T19:30:48.809Z,16.00
2022-09-26T19:33:16.010Z,16.00
2022-09-26T19:35:42.944Z,15.80
2022-09-26T19:38:16.139Z,15.90
2022-09-26T19:40:48.445Z,15.80
2022-09-26T19:43:16.236Z,15.90
2022-09-26T19:45:45.225Z,16.00
2022-09-26T19:48:15.467Z,16.00
2022-09-26T19:50:43.273Z,15.90
2022-09-26T19:53:12.960Z,16.00
2022-09-26T19:55:39.992Z,16.00
2022-09-26T19:58:11.675Z,15.90
2022-09-26T20:00:41.565Z,15.80
2022-09-26T20:03:13.302Z,15.80
2022-09-26T20:05:40.271Z,15.70
2022-09-26T20:08:08.167Z,15.60
2022-09-26T20:10:35.189Z,15.60
2022-09-26T20:13:02.052Z,15.40
2022-09-26T20:15:31.335Z,15.20
2022-09-26T20:18:00.197Z,15.00
2022-09-26T20:20:28.869Z,15.00
2022-09-26T20:22:56.476Z,14.80
2022-09-26T20:25:26.803Z,14.70
2022-09-26T20:27:54.718Z,14.80
2022-09-26T20:30:40.201Z,14.90
2022-09-26T20:33:08.764Z,15.00
2022-09-26T20:35:40.011Z,15.10
2022-09-26T20:38:09.960Z,15.20
2022-09-26T20:40:37.923Z,15.20
2022-09-26T20:43:07.996Z,15.30
2022-09-26T20:45:38.583Z,15.30
2022-09-26T20:48:08.657Z,15.30
2022-09-26T20:50:39.206Z,15.30
2022-09-26T20:53:10.664Z,15.40
2022-09-26T20:55:41.858Z,15.20
2022-09-26T20:58:10.849Z,15.30
2022-09-26T21:00:39.002Z,15.20
2022-09-26T21:03:06.299Z,15.20
2022-09-26T21:05:36.608Z,15.30
2022-09-26T21:08:07.559Z,15.20
2022-09-26T21:10:34.986Z,15.20
2022-09-26T21:13:02.779Z,15.10
2022-09-26T21:15:30.959Z,14.80
2022-09-26T21:18:01.267Z,15.10
2022-09-26T21:20:31.519Z,15.20
2022-09-26T21:23:29.565Z,15.10
2022-09-26T21:25:58.738Z,15.20
2022-09-26T21:28:27.084Z,15.30
2022-09-26T21:30:54.923Z,15.30
2022-09-26T21:33:22.391Z,15.20
2022-09-26T21:35:49.819Z,15.10
2022-09-26T21:38:17.876Z,14.90
2022-09-26T21:40:49.076Z,14.80
2022-09-26T21:43:17.111Z,15.00
2022-09-26T21:45:44.898Z,15.10
2022-09-26T21:48:12.802Z,15.10
2022-09-26T21:50:43.351Z,15.00
2022-09-26T21:53:12.941Z,15.10
2022-09-26T21:55:42.625Z,15.00
2022-09-26T21:58:13.815Z,15.00
2022-09-26T22:00:40.987Z,15.00
2022-09-26T22:03:10.982Z,14.90
2022-09-26T22:05:38.163Z,14.90
2022-09-26T22:08:06.005Z,14.90
2022-09-26T22:10:33.258Z,14.60
2022-09-26T22:13:00.317Z,14.60
2022-09-26T22:15:28.675Z,14.70
2022-09-26T22:17:55.595Z,14.70
2022-09-26T22:20:22.575Z,14.70
2022-09-26T22:22:49.767Z,14.80
2022-09-26T22:25:16.836Z,14.80
2022-09-26T22:27:43.963Z,14.90
2022-09-26T22:30:11.700Z,14.70
2022-09-26T22:32:40.023Z,14.90
2022-09-26T22:35:07.221Z,14.80
2022-09-26T22:37:34.196Z,14.70
2022-09-26T22:40:01.271Z,14.80
2022-09-26T22:42:28.155Z,14.80
2022-09-26T22:44:55.008Z,14.60
2022-09-26T22:47:22.367Z,14.80
2022-09-26T22:49:50.579Z,14.80
2022-09-26T22:52:17.447Z,14.90
2022-09-26T22:54:44.278Z,14.90
2022-09-26T22:57:11.466Z,14.80
2022-09-26T22:59:39.237Z,14.60
2022-09-26T23:02:06.152Z,14.60
2022-09-26T23:04:48.528Z,14.60
2022-09-26T23:07:17.972Z,14.40
2022-09-26T23:09:45.269Z,14.50
2022-09-26T23:12:12.138Z,14.40
2022-09-26T23:14:39.076Z,14.40
2022-09-26T23:17:06.396Z,14.40
2022-09-26T23:19:33.701Z,14.40
2022-09-26T23:22:00.746Z,14.40
2022-09-26T23:24:29.468Z,14.20
2022-09-26T23:26:56.687Z,14.20
2022-09-26T23:29:23.559Z,14.30
2022-09-26T23:31:50.993Z,14.40
2022-09-26T23:34:17.973Z,14.40
2022-09-26T23:36:44.927Z,14.40
2022-09-26T23:39:11.803Z,14.50
2022-09-26T23:41:40.072Z,14.60
2022-09-26T23:44:06.965Z,14.50
2022-09-26T23:46:34.085Z,14.20
2022-09-26T23:49:01.192Z,14.40
2022-09-26T23:51:28.219Z,14.40
2022-09-26T23:53:55.398Z,14.20
2022-09-26T23:56:22.260Z,14.10
2022-09-26T23:58:50.537Z,14.00
